createdAt,value
2019-03-06T00:01:35.637Z,15.43
2019-03-06T00:04:06.128Z,17.10
2019-03-06T00:06:49.651Z,18.92
2019-03-06T00:09:26.075Z,18.23
2019-03-06T00:12:07.231Z,20.97
2019-03-06T00:14:38.520Z,20.05
2019-03-06T00:17:18.617Z,21.52
2019-03-06T00:19:49.026Z,25.50
2019-03-06T00:22:20.410Z,20.23
2019-03-06T00:24:57.474Z,23.07
2019-03-06T00:27:37.300Z,20.90
2019-03-06T00:30:13.006Z,22.65
2019-03-06T00:32:45.284Z,23.12
2019-03-06T00:35:26.251Z,22.40
2019-03-06T00:38:02.930Z,23.83
2019-03-06T00:40:37.743Z,22.77
2019-03-06T00:43:08.103Z,20.27
2019-03-06T00:45:38.435Z,22.17
2019-03-06T00:48:24.169Z,21.55
2019-03-06T00:50:54.564Z,19.82
2019-03-06T00:53:35.821Z,21.05
2019-03-06T00:56:06.185Z,22.17
2019-03-06T01:01:30.315Z,27.65
2019-03-06T01:04:03.584Z,25.25
2019-03-06T01:09:05.302Z,18.92
2019-03-06T01:11:39.949Z,21.87
2019-03-06T01:14:10.352Z,24.95
2019-03-06T01:16:40.739Z,19.05
2019-03-06T01:19:11.153Z,22.85
2019-03-06T01:21:47.627Z,27.10
2019-03-06T01:24:21.056Z,27.30
2019-03-06T01:26:51.737Z,30.52
2019-03-06T01:29:27.449Z,34.65
2019-03-06T01:31:57.811Z,25.75
2019-03-06T01:34:35.814Z,25.70
2019-03-06T01:37:07.727Z,28.70
2019-03-06T01:39:45.649Z,26.07
2019-03-06T01:42:20.744Z,28.77
2019-03-06T01:44:57.609Z,22.02
2019-03-06T01:47:33.942Z,23.10
2019-03-06T01:50:06.084Z,22.70
2019-03-06T01:52:38.185Z,20.35
2019-03-06T01:55:11.494Z,22.52
2019-03-06T01:57:42.957Z,23.85
2019-03-06T02:00:17.726Z,23.18
2019-03-06T02:02:48.068Z,18.42
2019-03-06T02:05:18.806Z,22.05
2019-03-06T02:07:50.588Z,21.15
2019-03-06T02:10:21.024Z,20.45
2019-03-06T02:12:51.404Z,21.73
2019-03-06T02:15:22.231Z,17.70
2019-03-06T02:17:56.753Z,24.23
2019-03-06T02:20:27.206Z,24.12
2019-03-06T02:22:57.573Z,19.75
2019-03-06T02:25:28.310Z,20.20
2019-03-06T02:27:58.673Z,25.05
2019-03-06T02:30:29.118Z,21.27
2019-03-06T02:32:59.467Z,22.02
2019-03-06T02:35:29.910Z,20.82
2019-03-06T02:38:01.830Z,18.90
2019-03-06T02:40:32.281Z,20.30
2019-03-06T02:43:09.724Z,26.93
2019-03-06T02:45:40.170Z,22.82
2019-03-06T02:48:24.660Z,24.90
2019-03-06T02:51:00.954Z,23.25
2019-03-06T02:53:41.367Z,20.35
2019-03-06T02:56:11.818Z,19.80
2019-03-06T02:59:03.986Z,23.70
2019-03-06T03:01:35.984Z,23.27
2019-03-06T03:04:10.881Z,21.60
2019-03-06T03:06:58.439Z,24.05
2019-03-06T03:09:28.852Z,21.65
2019-03-06T03:11:59.343Z,21.93
2019-03-06T03:14:32.670Z,27.07
2019-03-06T03:17:03.136Z,22.25
2019-03-06T03:19:33.562Z,25.43
2019-03-06T03:22:04.291Z,23.98
2019-03-06T03:24:34.707Z,21.33
2019-03-06T03:27:05.273Z,21.37
2019-03-06T03:29:35.686Z,23.65
2019-03-06T03:32:06.040Z,22.77
2019-03-06T03:34:36.632Z,24.12
2019-03-06T03:37:10.011Z,27.58
2019-03-06T03:39:48.616Z,26.35
2019-03-06T03:42:20.448Z,25.43
2019-03-06T03:44:50.870Z,26.07
2019-03-06T03:47:21.251Z,23.92
2019-03-06T03:49:51.682Z,25.45
2019-03-06T03:52:23.527Z,28.23
2019-03-06T03:54:59.990Z,24.45
2019-03-06T03:57:36.246Z,25.72
2019-03-06T04:00:33.798Z,27.65
2019-03-06T04:02:58.961Z,25.92
2019-03-06T04:05:32.165Z,23.67
2019-03-06T04:08:02.646Z,26.70
2019-03-06T04:10:39.832Z,26.75
2019-03-06T04:13:10.273Z,24.23
2019-03-06T04:15:41.018Z,26.90
2019-03-06T04:18:32.634Z,24.82
2019-03-06T04:21:06.272Z,25.75
2019-03-06T04:23:45.820Z,26.55
2019-03-06T04:26:42.734Z,28.47
2019-03-06T04:29:19.151Z,23.60
2019-03-06T04:34:55.366Z,31.37
2019-03-06T04:37:40.658Z,29.12
2019-03-06T04:40:12.838Z,32.38
2019-03-06T04:42:48.289Z,27.48
2019-03-06T04:45:19.001Z,36.25
2019-03-06T04:47:49.383Z,30.32
2019-03-06T04:50:19.813Z,33.80
2019-03-06T04:52:53.566Z,33.38
2019-03-06T04:55:23.868Z,30.65
2019-03-06T04:57:54.298Z,32.55
2019-03-06T05:00:25.078Z,34.43
2019-03-06T05:02:55.758Z,31.95
2019-03-06T05:05:26.086Z,40.85
2019-03-06T05:07:56.454Z,34.98
2019-03-06T05:10:33.946Z,35.15
2019-03-06T05:13:04.641Z,32.58
2019-03-06T05:15:52.778Z,32.35
2019-03-06T05:18:29.420Z,39.10
2019-03-06T05:21:06.145Z,36.50
2019-03-06T05:23:45.485Z,32.63
2019-03-06T05:26:16.930Z,36.15
2019-03-06T05:28:53.418Z,33.75
2019-03-06T05:31:27.847Z,34.63
2019-03-06T05:33:58.147Z,37.17
2019-03-06T05:36:43.519Z,36.03
2019-03-06T05:39:13.811Z,37.93
2019-03-06T05:41:51.484Z,31.90
2019-03-06T05:44:21.902Z,34.85
2019-03-06T05:46:52.286Z,36.28
2019-03-06T05:49:22.668Z,38.53
2019-03-06T05:51:53.029Z,40.45
2019-03-06T05:54:23.356Z,34.75
2019-03-06T05:56:53.643Z,36.03
2019-03-06T05:59:23.976Z,36.13
2019-03-06T06:01:54.535Z,36.45
2019-03-06T06:04:25.299Z,42.45
2019-03-06T06:06:55.563Z,38.15
2019-03-06T06:09:26.267Z,44.25
2019-03-06T06:11:56.583Z,37.08
2019-03-06T06:14:26.990Z,37.38
2019-03-06T06:16:57.438Z,36.08
2019-03-06T06:19:27.770Z,36.08
2019-03-06T06:22:15.057Z,34.83
2019-03-06T06:24:45.384Z,44.05
2019-03-06T06:27:15.677Z,42.33
2019-03-06T06:29:46.323Z,44.83
2019-03-06T06:32:16.634Z,45.35
2019-03-06T06:34:47.183Z,46.25
2019-03-06T06:37:17.467Z,45.28
2019-03-06T06:39:47.799Z,44.53
2019-03-06T06:42:18.192Z,43.48
2019-03-06T06:44:48.538Z,44.38
2019-03-06T06:47:18.866Z,36.30
2019-03-06T06:49:49.276Z,45.23
2019-03-06T06:52:25.431Z,38.70
2019-03-06T06:55:04.609Z,43.90
2019-03-06T06:57:40.501Z,38.70
2019-03-06T07:00:27.849Z,41.28
2019-03-06T07:03:17.458Z,41.40
2019-03-06T07:05:49.813Z,35.38
2019-03-06T07:08:27.354Z,36.68
2019-03-06T07:11:05.551Z,32.70
2019-03-06T07:13:37.460Z,31.82
2019-03-06T07:16:24.371Z,33.10
2019-03-06T07:19:11.374Z,36.40
2019-03-06T07:21:58.422Z,30.57
2019-03-06T07:24:30.334Z,34.30
2019-03-06T07:27:15.741Z,35.03
2019-03-06T07:29:47.599Z,35.70
2019-03-06T07:32:35.529Z,37.45
2019-03-06T07:35:46.613Z,42.88
2019-03-06T07:38:16.993Z,44.00
2019-03-06T07:41:04.030Z,49.58
2019-03-06T07:43:54.037Z,37.90
2019-03-06T07:46:25.953Z,41.42
2019-03-06T07:49:10.012Z,36.65
2019-03-06T07:51:51.136Z,41.35
2019-03-06T07:54:29.073Z,39.73
2019-03-06T07:57:02.525Z,47.23
2019-03-06T07:59:32.918Z,38.45
2019-03-06T08:02:21.246Z,42.33
2019-03-06T08:04:54.244Z,40.80
2019-03-06T08:07:24.561Z,37.48
2019-03-06T08:09:55.092Z,35.25
2019-03-06T08:12:32.278Z,36.55
2019-03-06T08:15:14.416Z,36.38
2019-03-06T08:18:01.875Z,46.42
2019-03-06T08:20:42.999Z,45.65
2019-03-06T08:23:31.663Z,37.65
2019-03-06T08:26:02.054Z,32.42
2019-03-06T08:28:32.361Z,33.40
2019-03-06T08:31:07.658Z,34.27
2019-03-06T08:33:37.962Z,33.18
2019-03-06T08:36:08.333Z,34.70
2019-03-06T08:38:38.644Z,34.73
2019-03-06T08:41:09.032Z,35.92
2019-03-06T08:43:39.341Z,33.80
2019-03-06T08:46:14.123Z,26.70
2019-03-06T08:48:45.975Z,31.65
2019-03-06T08:51:21.286Z,32.58
2019-03-06T08:53:59.024Z,33.25
2019-03-06T08:56:36.538Z,35.65
2019-03-06T08:59:10.977Z,30.00
2019-03-06T09:01:42.925Z,30.97
2019-03-06T09:04:33.240Z,29.77
2019-03-06T09:07:10.818Z,33.25
2019-03-06T09:09:45.644Z,35.52
2019-03-06T09:12:20.459Z,36.95
2019-03-06T09:15:01.776Z,37.30
2019-03-06T09:17:46.298Z,30.15
2019-03-06T09:20:37.119Z,30.35
2019-03-06T09:23:23.395Z,30.25
2019-03-06T09:26:01.986Z,30.23
2019-03-06T09:28:33.932Z,26.55
2019-03-06T09:31:18.342Z,26.15
2019-03-06T09:33:53.254Z,24.27
2019-03-06T09:36:40.501Z,27.60
2019-03-06T09:39:15.863Z,24.57
2019-03-06T09:41:47.723Z,25.82
2019-03-06T09:44:19.665Z,25.82
2019-03-06T09:46:57.362Z,27.48
2019-03-06T09:49:35.253Z,23.85
2019-03-06T09:52:07.101Z,23.87
2019-03-06T09:54:39.011Z,22.30
2019-03-06T09:57:10.835Z,21.75
2019-03-06T09:59:54.871Z,23.92
2019-03-06T10:02:26.999Z,26.85
2019-03-06T10:05:01.785Z,31.17
2019-03-06T10:07:50.099Z,32.42
2019-03-06T10:10:22.221Z,27.48
2019-03-06T10:12:55.016Z,26.23
2019-03-06T10:15:33.593Z,28.23
2019-03-06T10:18:22.127Z,37.03
2019-03-06T10:20:52.435Z,30.82
2019-03-06T10:23:22.713Z,32.03
2019-03-06T10:25:53.016Z,28.73
2019-03-06T10:28:27.835Z,31.37
2019-03-06T10:31:02.152Z,24.18
2019-03-06T10:33:27.309Z,27.93
2019-03-06T10:35:57.658Z,26.62
2019-03-06T10:38:28.037Z,25.25
2019-03-06T10:40:58.341Z,34.38
2019-03-06T10:43:28.627Z,30.65
2019-03-06T10:45:59.376Z,25.60
2019-03-06T10:48:29.824Z,28.73
2019-03-06T10:51:00.026Z,33.70
2019-03-06T10:53:30.340Z,33.42
2019-03-06T10:56:01.298Z,22.25
2019-03-06T10:58:31.611Z,24.52
2019-03-06T11:01:01.965Z,22.45
2019-03-06T11:03:45.775Z,22.93
2019-03-06T11:06:16.471Z,22.77
2019-03-06T11:08:46.718Z,23.10
2019-03-06T11:11:17.395Z,18.65
2019-03-06T11:13:47.622Z,21.27
2019-03-06T11:16:18.114Z,24.57
2019-03-06T11:18:48.831Z,21.68
2019-03-06T11:21:19.385Z,23.70
2019-03-06T11:23:49.685Z,26.70
2019-03-06T11:26:19.965Z,29.57
2019-03-06T11:28:50.263Z,27.25
2019-03-06T11:31:20.845Z,20.20
2019-03-06T11:33:51.078Z,20.60
2019-03-06T11:36:22.347Z,27.93
2019-03-06T11:38:52.652Z,25.02
2019-03-06T11:41:22.859Z,21.17
2019-03-06T11:43:53.551Z,27.22
2019-03-06T11:46:23.848Z,29.90
2019-03-06T11:48:54.089Z,20.92
2019-03-06T11:51:25.281Z,25.57
2019-03-06T11:53:55.600Z,21.73
2019-03-06T11:56:25.828Z,21.27
2019-03-06T11:58:56.658Z,23.62
2019-03-06T12:01:27.221Z,22.13
2019-03-06T12:03:58.953Z,22.32
2019-03-06T12:06:29.231Z,17.57
2019-03-06T12:08:59.547Z,18.15
2019-03-06T12:11:30.346Z,24.72
2019-03-06T12:14:00.879Z,20.75
2019-03-06T12:16:32.084Z,21.73
2019-03-06T12:19:02.379Z,18.45
2019-03-06T12:21:32.648Z,20.80
2019-03-06T12:24:03.050Z,21.30
2019-03-06T12:26:33.688Z,14.85
2019-03-06T12:29:04.032Z,27.70
2019-03-06T12:31:34.922Z,34.75
2019-03-06T12:34:05.328Z,19.25
2019-03-06T12:36:36.221Z,19.10
2019-03-06T12:39:06.776Z,13.55
2019-03-06T12:41:38.546Z,23.15
2019-03-06T12:44:10.601Z,17.07
2019-03-06T12:46:41.311Z,16.42
2019-03-06T12:49:11.585Z,20.68
2019-03-06T12:51:42.333Z,19.90
2019-03-06T12:54:12.711Z,17.17
2019-03-06T12:56:42.995Z,20.95
2019-03-06T12:59:13.279Z,9.48
2019-03-06T13:01:44.107Z,12.73
2019-03-06T13:04:14.442Z,11.18
2019-03-06T13:06:44.731Z,13.58
2019-03-06T13:09:17.242Z,11.35
2019-03-06T13:11:47.443Z,10.10
2019-03-06T13:14:17.815Z,13.60
2019-03-06T13:16:48.098Z,17.98
2019-03-06T13:19:18.467Z,13.48
2019-03-06T13:21:48.620Z,11.22
2019-03-06T13:24:18.983Z,9.93
2019-03-06T13:26:49.259Z,10.63
2019-03-06T13:29:19.900Z,14.33
2019-03-06T13:31:50.161Z,15.03
2019-03-06T13:34:22.092Z,17.85
2019-03-06T13:36:52.350Z,13.13
2019-03-06T13:39:22.624Z,9.63
2019-03-06T13:41:53.176Z,13.48
2019-03-06T13:44:24.114Z,12.13
2019-03-06T13:46:54.392Z,13.00
2019-03-06T13:49:24.725Z,15.05
2019-03-06T13:51:54.953Z,12.33
2019-03-06T13:54:25.399Z,15.03
2019-03-06T13:56:55.671Z,17.30
2019-03-06T13:59:26.969Z,13.05
2019-03-06T14:01:57.247Z,14.68
2019-03-06T14:04:27.645Z,12.40
2019-03-06T14:06:57.910Z,12.15
2019-03-06T14:09:28.447Z,20.68
2019-03-06T14:11:58.677Z,13.68
2019-03-06T14:14:29.142Z,11.48
2019-03-06T14:16:59.409Z,16.42
2019-03-06T14:19:29.713Z,13.25
2019-03-06T14:22:00.829Z,18.20
2019-03-06T14:24:32.692Z,20.88
2019-03-06T14:27:03.184Z,14.10
2019-03-06T14:29:33.588Z,10.60
2019-03-06T14:32:04.326Z,13.05
2019-03-06T14:34:34.607Z,10.08
2019-03-06T14:37:04.951Z,14.98
2019-03-06T14:39:35.158Z,10.23
2019-03-06T14:42:06.415Z,12.45
2019-03-06T14:44:36.739Z,14.98
2019-03-06T14:47:07.596Z,15.53
2019-03-06T14:49:37.989Z,12.40
2019-03-06T14:52:08.180Z,12.33
2019-03-06T14:54:38.953Z,18.73
2019-03-06T14:57:09.612Z,10.45
2019-03-06T14:59:39.921Z,9.03
2019-03-06T15:02:10.585Z,12.98
2019-03-06T15:04:40.918Z,8.15
2019-03-06T15:07:11.268Z,9.78
2019-03-06T15:09:41.824Z,16.00
2019-03-06T15:12:12.132Z,14.43
2019-03-06T15:14:42.438Z,14.80
2019-03-06T15:17:14.417Z,13.68
2019-03-06T15:19:44.838Z,12.28
2019-03-06T15:22:15.080Z,13.22
2019-03-06T15:24:45.398Z,15.32
2019-03-06T15:27:16.149Z,13.58
2019-03-06T15:29:46.472Z,13.28
2019-03-06T15:32:16.752Z,13.58
2019-03-06T15:34:47.064Z,12.35
2019-03-06T15:37:17.319Z,12.98
2019-03-06T15:39:48.778Z,20.68
2019-03-06T15:42:19.287Z,23.85
2019-03-06T15:44:49.591Z,15.88
2019-03-06T15:47:19.860Z,15.90
2019-03-06T15:49:50.553Z,23.40
2019-03-06T15:52:20.743Z,14.90
2019-03-06T15:54:52.742Z,17.52
2019-03-06T15:57:24.128Z,20.20
2019-03-06T15:59:54.432Z,18.80
2019-03-06T16:02:25.093Z,17.12
2019-03-06T16:04:55.364Z,16.55
2019-03-06T16:07:25.667Z,16.37
2019-03-06T16:09:55.964Z,14.38
2019-03-06T16:12:29.332Z,18.67
2019-03-06T16:14:59.720Z,26.80
2019-03-06T16:17:29.951Z,19.32
2019-03-06T16:20:00.495Z,22.50
2019-03-06T16:22:30.774Z,21.20
2019-03-06T16:25:01.216Z,25.17
2019-03-06T16:27:31.879Z,21.30
2019-03-06T16:30:02.247Z,25.30
2019-03-06T16:32:34.060Z,15.55
2019-03-06T16:35:06.555Z,22.25
2019-03-06T16:37:36.894Z,20.30
2019-03-06T16:40:19.604Z,23.02
2019-03-06T16:42:51.015Z,19.32
2019-03-06T16:45:26.742Z,26.17
2019-03-06T16:47:57.367Z,21.02
2019-03-06T16:50:32.720Z,22.02
2019-03-06T16:53:03.635Z,20.88
2019-03-06T16:55:37.361Z,25.80
2019-03-06T17:00:40.707Z,32.60
2019-03-06T17:03:11.567Z,32.65
2019-03-06T17:05:42.170Z,37.35
2019-03-06T17:08:12.472Z,34.92
2019-03-06T17:10:42.814Z,40.63
2019-03-06T17:13:13.117Z,41.83
2019-03-06T17:15:43.394Z,47.98
2019-03-06T17:18:15.011Z,45.83
2019-03-06T17:20:47.865Z,48.23
2019-03-06T17:23:18.172Z,49.33
2019-03-06T17:25:49.111Z,43.68
2019-03-06T17:28:19.397Z,48.40
2019-03-06T17:30:50.548Z,50.55
2019-03-06T17:33:21.252Z,48.78
2019-03-06T17:35:55.172Z,49.65
2019-03-06T17:38:25.530Z,51.30
2019-03-06T17:40:55.806Z,50.95
2019-03-06T17:43:26.688Z,40.70
2019-03-06T17:45:56.983Z,46.77
2019-03-06T17:48:27.336Z,48.87
2019-03-06T17:50:57.632Z,45.63
2019-03-06T17:53:27.920Z,44.80
2019-03-06T17:55:58.805Z,42.55
2019-03-06T17:58:29.250Z,42.10
2019-03-06T18:01:01.597Z,34.03
2019-03-06T18:03:42.839Z,36.10
2019-03-06T18:06:14.800Z,40.88
2019-03-06T18:08:45.106Z,33.75
2019-03-06T18:11:15.572Z,39.85
2019-03-06T18:13:45.887Z,44.48
2019-03-06T18:16:16.267Z,41.60
2019-03-06T18:18:46.505Z,43.08
2019-03-06T18:21:16.886Z,45.67
2019-03-06T18:23:47.218Z,40.33
2019-03-06T18:26:17.487Z,42.58
2019-03-06T18:28:49.955Z,43.17
2019-03-06T18:31:27.516Z,40.80
2019-03-06T18:33:58.020Z,37.28
2019-03-06T18:36:28.314Z,32.83
2019-03-06T18:38:58.640Z,34.05
2019-03-06T18:41:30.460Z,43.58
2019-03-06T18:44:00.747Z,41.50
2019-03-06T18:46:31.314Z,37.38
2019-03-06T18:49:01.592Z,43.30
2019-03-06T18:51:32.944Z,38.75
2019-03-06T18:54:03.209Z,41.40
2019-03-06T18:56:33.984Z,38.28
2019-03-06T18:59:04.444Z,38.88
2019-03-06T19:01:35.147Z,36.77
2019-03-06T19:04:05.621Z,33.53
2019-03-06T19:06:36.003Z,39.10
2019-03-06T19:09:06.973Z,39.95
2019-03-06T19:11:38.799Z,38.17
2019-03-06T19:14:09.159Z,42.30
2019-03-06T19:16:39.459Z,40.43
2019-03-06T19:19:09.941Z,41.55
2019-03-06T19:21:40.581Z,41.58
2019-03-06T19:24:11.027Z,48.35
2019-03-06T19:26:41.483Z,51.23
2019-03-06T19:29:11.862Z,51.40
2019-03-06T19:31:42.041Z,49.70
2019-03-06T19:34:13.491Z,40.58
2019-03-06T19:36:45.167Z,44.48
2019-03-06T19:39:15.608Z,45.05
2019-03-06T19:41:45.928Z,48.50
2019-03-06T19:44:16.208Z,49.50
2019-03-06T19:46:46.459Z,56.60
2019-03-06T19:49:16.794Z,47.53
2019-03-06T19:51:51.549Z,50.50
2019-03-06T19:54:19.672Z,43.95
2019-03-06T19:56:49.948Z,49.35
2019-03-06T19:59:20.381Z,46.50
2019-03-06T20:01:52.434Z,44.15
2019-03-06T20:04:22.688Z,43.25
2019-03-06T20:06:53.358Z,46.58
2019-03-06T20:09:25.327Z,42.55
2019-03-06T20:11:55.809Z,45.75
2019-03-06T20:14:26.179Z,45.90
2019-03-06T20:16:56.825Z,46.88
2019-03-06T20:19:27.125Z,49.13
2019-03-06T20:21:57.371Z,50.30
2019-03-06T20:24:27.638Z,42.83
2019-03-06T20:26:58.143Z,48.10
2019-03-06T20:29:28.609Z,50.20
2019-03-06T20:32:00.384Z,46.33
2019-03-06T20:34:32.226Z,50.33
2019-03-06T20:37:02.688Z,46.65
2019-03-06T20:39:32.968Z,46.18
2019-03-06T20:42:03.407Z,50.30
2019-03-06T20:44:33.699Z,52.17
2019-03-06T20:47:03.988Z,52.23
2019-03-06T20:49:34.491Z,52.93
2019-03-06T20:52:04.815Z,57.93
2019-03-06T20:54:35.035Z,44.63
2019-03-06T20:57:05.322Z,48.00
2019-03-06T20:59:35.619Z,47.58
2019-03-06T21:02:05.914Z,46.88
2019-03-06T21:04:36.227Z,43.33
2019-03-06T21:07:06.497Z,45.45
2019-03-06T21:09:37.503Z,50.45
2019-03-06T21:12:07.810Z,38.85
2019-03-06T21:14:38.116Z,37.45
2019-03-06T21:17:08.655Z,40.88
2019-03-06T21:19:38.990Z,41.35
2019-03-06T21:22:09.544Z,34.45
2019-03-06T21:24:39.868Z,36.60
2019-03-06T21:27:10.220Z,40.55
2019-03-06T21:29:41.346Z,38.08
2019-03-06T21:32:11.719Z,42.05
2019-03-06T21:34:42.037Z,39.35
2019-03-06T21:37:13.009Z,33.02
2019-03-06T21:39:43.247Z,34.20
2019-03-06T21:42:13.606Z,39.08
2019-03-06T21:44:43.930Z,52.67
2019-03-06T21:47:14.118Z,44.13
2019-03-06T21:49:44.844Z,39.73
2019-03-06T21:52:15.173Z,43.02
2019-03-06T21:54:46.157Z,40.75
2019-03-06T21:57:17.594Z,36.35
2019-03-06T21:59:47.841Z,40.50
2019-03-06T22:02:18.123Z,41.58
2019-03-06T22:04:48.356Z,42.08
2019-03-06T22:07:18.650Z,40.23
2019-03-06T22:09:49.950Z,38.85
2019-03-06T22:12:31.113Z,42.90
2019-03-06T22:15:01.939Z,36.65
2019-03-06T22:17:32.389Z,37.70
2019-03-06T22:20:02.753Z,37.78
2019-03-06T22:22:33.059Z,39.10
2019-03-06T22:25:03.478Z,39.00
2019-03-06T22:27:34.067Z,36.38
2019-03-06T22:30:16.006Z,37.03
2019-03-06T22:32:46.293Z,37.13
2019-03-06T22:35:16.609Z,32.83
2019-03-06T22:37:46.882Z,35.50
2019-03-06T22:40:18.847Z,37.15
2019-03-06T22:42:49.221Z,36.28
2019-03-06T22:45:20.707Z,41.40
2019-03-06T22:47:51.389Z,38.60
2019-03-06T22:50:21.752Z,40.58
2019-03-06T22:52:52.639Z,39.45
2019-03-06T22:55:23.056Z,42.08
2019-03-06T22:57:53.309Z,47.80
2019-03-06T23:00:34.132Z,42.03
2019-03-06T23:03:05.975Z,44.63
2019-03-06T23:05:37.222Z,36.95
2019-03-06T23:08:07.525Z,36.48
2019-03-06T23:10:38.042Z,36.20
2019-03-06T23:13:08.501Z,36.73
2019-03-06T23:15:40.868Z,36.35
2019-03-06T23:18:11.235Z,37.53
2019-03-06T23:20:41.578Z,40.52
2019-03-06T23:23:11.960Z,34.13
2019-03-06T23:25:42.289Z,36.25
2019-03-06T23:28:12.905Z,32.05
2019-03-06T23:30:43.291Z,32.78
2019-03-06T23:33:13.522Z,37.55
2019-03-06T23:35:43.882Z,35.05
2019-03-06T23:38:14.214Z,43.15
2019-03-06T23:40:44.543Z,33.30
2019-03-06T23:43:14.854Z,30.92
2019-03-06T23:45:45.326Z,35.25
2019-03-06T23:48:15.589Z,32.40
2019-03-06T23:50:47.007Z,34.95
2019-03-06T23:53:17.328Z,30.00
2019-03-06T23:55:47.698Z,31.87
2019-03-06T23:58:18.050Z,32.28
